Terminal Aerodrome Forecast
Issued by NWS Greer, SC

Home | Current Version | Previous Version | Text Only | Print | Product List | Glossary On
Versions: 1 2 3 4 5 6 7 8 9 10 11 12 13 14 15 16 17 18 19 20 21 22 23 24 25 26 27 28 29 30
000
FTUS42 KGSP 241844 AAA
TAFAVL
TAF AMD
KAVL 241844Z 2419/2518 18007KT P6SM SCT021 BKN070
     FM242100 18007KT P6SM VCTS SCT030CB BKN050
     FM242300 18005KT P6SM BKN090
     FM250600 VRB02KT P6SM BKN045
      TEMPO 2509/2512 1SM BR
     FM251400 34003KT P6SM SCT045 BKN110=

USA.gov is the U.S. government's official web portal to all federal, state and local government web resources and services.